sensor_id;sensor_type;location;lat;lon;timestamp;pressure;altitude;pressure_sealevel;temperature;humidity
40948;BME280;49382;-25.924;28.194;2023-07-31T00:00:45;85762.59;;;6.70;27.89
40948;BME280;49382;-25.924;28.194;2023-07-31T00:03:11;85764.92;;;6.72;28.15
40948;BME280;49382;-25.924;28.194;2023-07-31T00:05:36;85766.82;;;6.97;28.18
40948;BME280;49382;-25.924;28.194;2023-07-31T00:08:01;85769.43;;;7.55;26.82
40948;BME280;49382;-25.924;28.194;2023-07-31T00:10:27;85768.38;;;7.10;26.79
40948;BME280;49382;-25.924;28.194;2023-07-31T00:12:52;85770.34;;;7.45;26.48
40948;BME280;49382;-25.924;28.194;2023-07-31T00:15:17;85766.09;;;7.70;26.55
40948;BME280;49382;-25.924;28.194;2023-07-31T00:17:42;85764.55;;;7.33;26.49
40948;BME280;49382;-25.924;28.194;2023-07-31T00:20:08;85765.67;;;8.21;26.02
40948;BME280;49382;-25.924;28.194;2023-07-31T00:22:33;85768.30;;;7.36;26.72
40948;BME280;49382;-25.924;28.194;2023-07-31T00:24:58;85771.13;;;6.16;28.01
40948;BME280;49382;-25.924;28.194;2023-07-31T00:27:23;85767.25;;;5.67;29.06
40948;BME280;49382;-25.924;28.194;2023-07-31T00:29:49;85769.21;;;5.38;28.93
40948;BME280;49382;-25.924;28.194;2023-07-31T00:32:14;85772.37;;;4.71;30.32
40948;BME280;49382;-25.924;28.194;2023-07-31T00:34:39;85774.89;;;5.27;30.38
40948;BME280;49382;-25.924;28.194;2023-07-31T00:37:05;85775.42;;;5.30;29.35
40948;BME280;49382;-25.924;28.194;2023-07-31T00:39:30;85774.66;;;5.76;29.07
40948;BME280;49382;-25.924;28.194;2023-07-31T00:41:55;85777.65;;;6.70;27.90
40948;BME280;49382;-25.924;28.194;2023-07-31T00:44:21;85774.72;;;7.26;26.45
40948;BME280;49382;-25.924;28.194;2023-07-31T00:46:46;85779.44;;;6.66;26.94
40948;BME280;49382;-25.924;28.194;2023-07-31T00:49:11;85781.18;;;6.57;27.09
40948;BME280;49382;-25.924;28.194;2023-07-31T00:51:36;85782.63;;;6.74;26.83
40948;BME280;49382;-25.924;28.194;2023-07-31T00:54:02;85780.84;;;6.63;27.16
40948;BME280;49382;-25.924;28.194;2023-07-31T00:56:28;85784.07;;;6.74;27.41
40948;BME280;49382;-25.924;28.194;2023-07-31T00:58:52;85782.07;;;5.58;28.37
40948;BME280;49382;-25.924;28.194;2023-07-31T01:01:17;85786.46;;;5.13;29.24
40948;BME280;49382;-25.924;28.194;2023-07-31T01:03:43;85782.17;;;6.16;28.25
40948;BME280;49382;-25.924;28.194;2023-07-31T01:06:15;85777.58;;;6.07;28.42
40948;BME280;49382;-25.924;28.194;2023-07-31T01:08:39;85776.93;;;5.33;29.29
40948;BME280;49382;-25.924;28.194;2023-07-31T01:11:04;85775.48;;;4.88;30.11
40948;BME280;49382;-25.924;28.194;2023-07-31T01:13:24;85772.61;;;6.30;29.06
40948;BME280;49382;-25.924;28.194;2023-07-31T01:15:49;85769.58;;;5.87;28.72
40948;BME280;49382;-25.924;28.194;2023-07-31T01:18:14;85771.12;;;6.38;28.54
40948;BME280;49382;-25.924;28.194;2023-07-31T01:20:42;85766.87;;;6.45;28.71
40948;BME280;49382;-25.924;28.194;2023-07-31T01:28:01;85766.90;;;6.80;26.88
40948;BME280;49382;-25.924;28.194;2023-07-31T01:30:25;85772.34;;;6.78;28.30
40948;BME280;49382;-25.924;28.194;2023-07-31T01:32:48;85767.88;;;6.38;28.68
40948;BME280;49382;-25.924;28.194;2023-07-31T01:35:12;85766.77;;;6.10;29.01
40948;BME280;49382;-25.924;28.194;2023-07-31T01:37:38;85770.11;;;5.48;29.72
40948;BME280;49382;-25.924;28.194;2023-07-31T01:40:06;85769.20;;;5.15;30.42
40948;BME280;49382;-25.924;28.194;2023-07-31T01:42:29;85768.06;;;5.23;30.71
40948;BME280;49382;-25.924;28.194;2023-07-31T01:44:54;85763.11;;;5.39;30.26
40948;BME280;49382;-25.924;28.194;2023-07-31T01:47:19;85763.05;;;4.78;30.87
40948;BME280;49382;-25.924;28.194;2023-07-31T01:49:44;85759.10;;;5.09;30.62
40948;BME280;49382;-25.924;28.194;2023-07-31T01:52:10;85758.59;;;5.15;30.67
40948;BME280;49382;-25.924;28.194;2023-07-31T01:54:35;85759.47;;;4.99;31.31
40948;BME280;49382;-25.924;28.194;2023-07-31T01:57:00;85756.63;;;5.61;30.57
40948;BME280;49382;-25.924;28.194;2023-07-31T01:59:25;85754.76;;;5.57;30.31
40948;BME280;49382;-25.924;28.194;2023-07-31T02:01:51;85756.12;;;4.99;30.99
40948;BME280;49382;-25.924;28.194;2023-07-31T02:04:16;85752.33;;;5.18;30.46
40948;BME280;49382;-25.924;28.194;2023-07-31T02:06:43;85746.69;;;5.33;30.91
40948;BME280;49382;-25.924;28.194;2023-07-31T02:09:07;85747.69;;;5.65;30.29
40948;BME280;49382;-25.924;28.194;2023-07-31T02:11:33;85742.57;;;5.68;29.56
40948;BME280;49382;-25.924;28.194;2023-07-31T02:13:58;85739.75;;;5.27;29.46
40948;BME280;49382;-25.924;28.194;2023-07-31T02:16:23;85736.06;;;5.27;29.47
40948;BME280;49382;-25.924;28.194;2023-07-31T02:18:50;85732.52;;;5.84;28.26
40948;BME280;49382;-25.924;28.194;2023-07-31T02:21:15;85728.88;;;6.09;28.34
40948;BME280;49382;-25.924;28.194;2023-07-31T02:23:40;85725.19;;;5.93;28.79
40948;BME280;49382;-25.924;28.194;2023-07-31T02:26:05;85724.92;;;5.74;29.09
40948;BME280;49382;-25.924;28.194;2023-07-31T02:28:30;85723.90;;;5.65;29.37
40948;BME280;49382;-25.924;28.194;2023-07-31T02:30:56;85721.55;;;5.84;29.54
40948;BME280;49382;-25.924;28.194;2023-07-31T02:33:22;85723.55;;;5.97;29.39
40948;BME280;49382;-25.924;28.194;2023-07-31T02:35:47;85721.34;;;5.55;29.84
40948;BME280;49382;-25.924;28.194;2023-07-31T02:38:12;85720.20;;;5.17;29.85
40948;BME280;49382;-25.924;28.194;2023-07-31T02:40:39;85721.45;;;5.54;29.36
40948;BME280;49382;-25.924;28.194;2023-07-31T02:43:03;85719.78;;;3.83;30.98
40948;BME280;49382;-25.924;28.194;2023-07-31T02:45:28;85724.15;;;4.58;31.17
40948;BME280;49382;-25.924;28.194;2023-07-31T02:47:53;85725.78;;;4.60;31.30
40948;BME280;49382;-25.924;28.194;2023-07-31T02:50:19;85722.34;;;4.73;30.51
40948;BME280;49382;-25.924;28.194;2023-07-31T02:52:44;85724.77;;;4.89;30.29
40948;BME280;49382;-25.924;28.194;2023-07-31T02:55:09;85726.02;;;5.93;28.97
40948;BME280;49382;-25.924;28.194;2023-07-31T02:57:35;85720.52;;;6.49;27.86
40948;BME280;49382;-25.924;28.194;2023-07-31T03:00:00;85719.85;;;6.19;27.77
40948;BME280;49382;-25.924;28.194;2023-07-31T03:02:25;85722.21;;;6.60;27.29
40948;BME280;49382;-25.924;28.194;2023-07-31T03:04:50;85725.49;;;6.47;27.48
40948;BME280;49382;-25.924;28.194;2023-07-31T03:07:16;85728.85;;;6.40;27.26
40948;BME280;49382;-25.924;28.194;2023-07-31T03:09:41;85736.05;;;5.90;27.59
40948;BME280;49382;-25.924;28.194;2023-07-31T03:12:07;85739.60;;;6.01;27.35
40948;BME280;49382;-25.924;28.194;2023-07-31T03:14:31;85743.22;;;5.69;28.45
40948;BME280;49382;-25.924;28.194;2023-07-31T03:16:57;85743.82;;;5.08;29.77
40948;BME280;49382;-25.924;28.194;2023-07-31T03:19:22;85741.96;;;4.52;30.17
40948;BME280;49382;-25.924;28.194;2023-07-31T03:21:48;85751.74;;;4.55;30.43
40948;BME280;49382;-25.924;28.194;2023-07-31T03:24:13;85752.70;;;4.09;30.40
40948;BME280;49382;-25.924;28.194;2023-07-31T03:26:38;85748.31;;;3.82;30.46
40948;BME280;49382;-25.924;28.194;2023-07-31T03:29:03;85750.43;;;4.02;30.43
40948;BME280;49382;-25.924;28.194;2023-07-31T03:31:29;85755.48;;;5.01;29.60
40948;BME280;49382;-25.924;28.194;2023-07-31T03:33:54;85748.94;;;4.42;30.39
40948;BME280;49382;-25.924;28.194;2023-07-31T03:36:19;85746.49;;;2.46;32.64
40948;BME280;49382;-25.924;28.194;2023-07-31T03:38:45;85753.38;;;4.08;30.50
40948;BME280;49382;-25.924;28.194;2023-07-31T03:41:10;85757.12;;;4.23;30.63
40948;BME280;49382;-25.924;28.194;2023-07-31T03:43:36;85760.58;;;4.55;30.50
40948;BME280;49382;-25.924;28.194;2023-07-31T03:46:01;85766.20;;;5.14;29.64
40948;BME280;49382;-25.924;28.194;2023-07-31T03:48:26;85768.99;;;4.93;29.26
40948;BME280;49382;-25.924;28.194;2023-07-31T03:50:52;85769.21;;;4.85;29.54
40948;BME280;49382;-25.924;28.194;2023-07-31T03:53:17;85770.16;;;4.56;30.09
40948;BME280;49382;-25.924;28.194;2023-07-31T03:55:42;85780.12;;;5.10;30.32
40948;BME280;49382;-25.924;28.194;2023-07-31T03:58:07;85787.65;;;5.59;30.51
40948;BME280;49382;-25.924;28.194;2023-07-31T04:00:33;85787.51;;;5.68;29.98
40948;BME280;49382;-25.924;28.194;2023-07-31T04:02:58;85794.34;;;5.37;30.42
40948;BME280;49382;-25.924;28.194;2023-07-31T04:05:23;85793.87;;;4.80;31.36
40948;BME280;49382;-25.924;28.194;2023-07-31T04:07:48;85799.70;;;5.08;30.47
40948;BME280;49382;-25.924;28.194;2023-07-31T04:10:14;85792.24;;;4.43;31.10
40948;BME280;49382;-25.924;28.194;2023-07-31T04:12:39;85795.83;;;5.38;29.91
40948;BME280;49382;-25.924;28.194;2023-07-31T04:15:05;85796.93;;;4.49;30.45
40948;BME280;49382;-25.924;28.194;2023-07-31T04:17:30;85800.72;;;4.15;31.67
40948;BME280;49382;-25.924;28.194;2023-07-31T04:19:55;85808.53;;;4.31;32.08
40948;BME280;49382;-25.924;28.194;2023-07-31T04:22:20;85816.16;;;3.79;32.43
40948;BME280;49382;-25.924;28.194;2023-07-31T04:24:46;85815.59;;;4.67;31.94
40948;BME280;49382;-25.924;28.194;2023-07-31T04:27:11;85818.57;;;5.14;31.51
40948;BME280;49382;-25.924;28.194;2023-07-31T04:29:37;85823.45;;;4.52;32.25
40948;BME280;49382;-25.924;28.194;2023-07-31T04:32:03;85825.99;;;4.48;32.05
40948;BME280;49382;-25.924;28.194;2023-07-31T04:34:27;85825.14;;;4.61;32.42
40948;BME280;49382;-25.924;28.194;2023-07-31T04:36:52;85822.85;;;4.87;31.40
40948;BME280;49382;-25.924;28.194;2023-07-31T04:39:18;85824.40;;;4.57;31.36
40948;BME280;49382;-25.924;28.194;2023-07-31T04:41:43;85824.12;;;3.75;32.20
40948;BME280;49382;-25.924;28.194;2023-07-31T04:44:09;85825.69;;;3.69;31.79
40948;BME280;49382;-25.924;28.194;2023-07-31T04:46:34;85829.99;;;4.21;31.59
40948;BME280;49382;-25.924;28.194;2023-07-31T04:48:59;85829.42;;;4.81;30.53
40948;BME280;49382;-25.924;28.194;2023-07-31T04:51:24;85829.68;;;3.88;31.49
40948;BME280;49382;-25.924;28.194;2023-07-31T04:53:50;85829.17;;;4.93;30.31
40948;BME280;49382;-25.924;28.194;2023-07-31T04:56:16;85829.59;;;4.11;30.70
40948;BME280;49382;-25.924;28.194;2023-07-31T04:58:40;85832.84;;;4.20;30.85
40948;BME280;49382;-25.924;28.194;2023-07-31T05:01:05;85835.78;;;4.19;30.44
40948;BME280;49382;-25.924;28.194;2023-07-31T05:03:31;85835.08;;;4.71;29.84
40948;BME280;49382;-25.924;28.194;2023-07-31T05:05:56;85835.31;;;4.80;29.73
40948;BME280;49382;-25.924;28.194;2023-07-31T05:08:21;85837.89;;;5.09;28.66
40948;BME280;49382;-25.924;28.194;2023-07-31T05:10:47;85838.43;;;4.86;29.31
40948;BME280;49382;-25.924;28.194;2023-07-31T05:13:12;85841.68;;;5.43;29.41
40948;BME280;49382;-25.924;28.194;2023-07-31T05:15:38;85844.26;;;5.28;29.21
40948;BME280;49382;-25.924;28.194;2023-07-31T05:18:03;85846.83;;;5.81;28.80
40948;BME280;49382;-25.924;28.194;2023-07-31T05:20:28;85847.41;;;5.94;29.09
40948;BME280;49382;-25.924;28.194;2023-07-31T05:22:53;85850.36;;;6.67;28.34
40948;BME280;49382;-25.924;28.194;2023-07-31T05:25:19;85852.93;;;7.22;27.06
40948;BME280;49382;-25.924;28.194;2023-07-31T05:27:44;85852.13;;;7.01;27.22
40948;BME280;49382;-25.924;28.194;2023-07-31T05:30:09;85855.00;;;7.91;26.19
40948;BME280;49382;-25.924;28.194;2023-07-31T05:32:35;85854.85;;;8.11;25.84
40948;BME280;49382;-25.924;28.194;2023-07-31T05:35:00;85855.71;;;7.89;25.70
40948;BME280;49382;-25.924;28.194;2023-07-31T05:37:25;85858.63;;;8.29;25.06
40948;BME280;49382;-25.924;28.194;2023-07-31T05:39:50;85859.23;;;8.96;24.28
40948;BME280;49382;-25.924;28.194;2023-07-31T05:42:16;85862.77;;;9.28;23.99
40948;BME280;49382;-25.924;28.194;2023-07-31T05:44:42;85861.76;;;8.91;24.10
40948;BME280;49382;-25.924;28.194;2023-07-31T05:47:07;85865.90;;;9.25;23.53
40948;BME280;49382;-25.924;28.194;2023-07-31T05:49:32;85869.23;;;9.21;23.53
40948;BME280;49382;-25.924;28.194;2023-07-31T05:51:57;85873.22;;;9.42;24.03
40948;BME280;49382;-25.924;28.194;2023-07-31T05:54:23;85875.46;;;9.26;23.71
40948;BME280;49382;-25.924;28.194;2023-07-31T05:56:48;85884.03;;;9.34;23.17
40948;BME280;49382;-25.924;28.194;2023-07-31T05:59:13;85880.44;;;9.90;23.17
40948;BME280;49382;-25.924;28.194;2023-07-31T06:01:38;85873.60;;;9.61;23.50
40948;BME280;49382;-25.924;28.194;2023-07-31T06:04:03;85877.25;;;9.76;23.57
40948;BME280;49382;-25.924;28.194;2023-07-31T06:06:29;85875.57;;;9.65;23.99
40948;BME280;49382;-25.924;28.194;2023-07-31T06:08:54;85882.11;;;9.76;23.19
40948;BME280;49382;-25.924;28.194;2023-07-31T06:11:20;85887.33;;;10.45;22.21
40948;BME280;49382;-25.924;28.194;2023-07-31T06:13:45;85895.45;;;11.06;21.48
40948;BME280;49382;-25.924;28.194;2023-07-31T06:16:10;85889.07;;;9.78;22.90
40948;BME280;49382;-25.924;28.194;2023-07-31T06:18:36;85893.15;;;10.25;22.19
40948;BME280;49382;-25.924;28.194;2023-07-31T06:21:01;85892.15;;;10.53;21.99
40948;BME280;49382;-25.924;28.194;2023-07-31T06:23:26;85891.31;;;10.57;21.78
40948;BME280;49382;-25.924;28.194;2023-07-31T06:25:52;85897.29;;;10.98;21.73
40948;BME280;49382;-25.924;28.194;2023-07-31T06:28:17;85898.02;;;11.32;21.57
40948;BME280;49382;-25.924;28.194;2023-07-31T06:30:42;85901.34;;;11.00;21.07
40948;BME280;49382;-25.924;28.194;2023-07-31T06:33:07;85907.52;;;11.06;21.30
40948;BME280;49382;-25.924;28.194;2023-07-31T06:35:32;85901.42;;;11.61;20.60
40948;BME280;49382;-25.924;28.194;2023-07-31T06:37:58;85899.38;;;12.28;20.34
40948;BME280;49382;-25.924;28.194;2023-07-31T06:40:23;85904.05;;;10.66;21.58
40948;BME280;49382;-25.924;28.194;2023-07-31T06:42:48;85908.13;;;11.51;20.94
40948;BME280;49382;-25.924;28.194;2023-07-31T06:45:13;85913.33;;;12.20;20.58
40948;BME280;49382;-25.924;28.194;2023-07-31T06:47:38;85915.06;;;11.83;20.49
40948;BME280;49382;-25.924;28.194;2023-07-31T06:50:03;85915.65;;;12.32;20.31
40948;BME280;49382;-25.924;28.194;2023-07-31T06:52:28;85923.62;;;12.18;20.37
40948;BME280;49382;-25.924;28.194;2023-07-31T06:55:01;85923.91;;;12.34;19.62
40948;BME280;49382;-25.924;28.194;2023-07-31T06:57:18;85920.66;;;12.56;19.14
40948;BME280;49382;-25.924;28.194;2023-07-31T06:59:44;85923.74;;;14.61;18.42
40948;BME280;49382;-25.924;28.194;2023-07-31T07:02:09;85927.81;;;19.93;14.67
40948;BME280;49382;-25.924;28.194;2023-07-31T07:04:34;85934.26;;;24.15;12.12
40948;BME280;49382;-25.924;28.194;2023-07-31T07:06:59;85930.11;;;26.74;10.48
40948;BME280;49382;-25.924;28.194;2023-07-31T07:09:24;85932.55;;;28.39;9.03
40948;BME280;49382;-25.924;28.194;2023-07-31T07:11:49;85931.98;;;30.12;8.02
40948;BME280;49382;-25.924;28.194;2023-07-31T07:14:14;85938.00;;;30.13;7.53
40948;BME280;49382;-25.924;28.194;2023-07-31T07:16:39;85930.79;;;31.64;6.76
40948;BME280;49382;-25.924;28.194;2023-07-31T07:19:04;85929.20;;;30.06;7.05
40948;BME280;49382;-25.924;28.194;2023-07-31T07:21:29;85932.79;;;32.73;6.26
40948;BME280;49382;-25.924;28.194;2023-07-31T07:23:54;85938.36;;;32.57;6.17
40948;BME280;49382;-25.924;28.194;2023-07-31T07:26:20;85935.66;;;32.03;5.89
40948;BME280;49382;-25.924;28.194;2023-07-31T07:28:45;85941.04;;;32.93;5.31
40948;BME280;49382;-25.924;28.194;2023-07-31T07:31:10;85941.92;;;33.06;5.38
40948;BME280;49382;-25.924;28.194;2023-07-31T07:33:37;85938.02;;;33.79;4.79
40948;BME280;49382;-25.924;28.194;2023-07-31T07:36:03;85939.65;;;33.01;5.19
40948;BME280;49382;-25.924;28.194;2023-07-31T07:38:28;85933.44;;;34.01;4.67
40948;BME280;49382;-25.924;28.194;2023-07-31T07:40:54;85941.77;;;34.19;4.36
40948;BME280;49382;-25.924;28.194;2023-07-31T07:43:20;85946.57;;;34.48;4.42
40948;BME280;49382;-25.924;28.194;2023-07-31T07:45:46;85945.24;;;36.59;4.13
40948;BME280;49382;-25.924;28.194;2023-07-31T07:48:11;85942.31;;;35.33;4.10
40948;BME280;49382;-25.924;28.194;2023-07-31T07:50:39;85946.96;;;35.20;4.31
40948;BME280;49382;-25.924;28.194;2023-07-31T07:53:03;85943.31;;;33.99;4.46
40948;BME280;49382;-25.924;28.194;2023-07-31T07:55:28;85942.31;;;32.79;4.86
40948;BME280;49382;-25.924;28.194;2023-07-31T07:57:54;85944.59;;;31.21;5.39
40948;BME280;49382;-25.924;28.194;2023-07-31T08:00:20;85930.69;;;29.90;6.04
40948;BME280;49382;-25.924;28.194;2023-07-31T08:02:46;85936.19;;;29.72;6.05
40948;BME280;49382;-25.924;28.194;2023-07-31T08:05:11;85939.89;;;28.42;6.29
40948;BME280;49382;-25.924;28.194;2023-07-31T08:07:37;85935.28;;;28.57;6.68
40948;BME280;49382;-25.924;28.194;2023-07-31T08:10:03;85937.45;;;27.31;6.42
40948;BME280;49382;-25.924;28.194;2023-07-31T08:12:28;85932.49;;;26.29;7.04
40948;BME280;49382;-25.924;28.194;2023-07-31T08:14:54;85932.47;;;26.64;7.00
40948;BME280;49382;-25.924;28.194;2023-07-31T08:17:19;85934.64;;;24.61;7.48
40948;BME280;49382;-25.924;28.194;2023-07-31T08:19:44;85933.30;;;25.89;7.11
40948;BME280;49382;-25.924;28.194;2023-07-31T08:22:10;85929.85;;;25.59;7.13
40948;BME280;49382;-25.924;28.194;2023-07-31T08:24:36;85932.48;;;24.63;7.60
40948;BME280;49382;-25.924;28.194;2023-07-31T08:27:01;85929.70;;;25.35;7.42
40948;BME280;49382;-25.924;28.194;2023-07-31T08:29:26;85933.01;;;24.47;7.47
40948;BME280;49382;-25.924;28.194;2023-07-31T08:31:52;85927.78;;;24.05;8.23
40948;BME280;49382;-25.924;28.194;2023-07-31T08:34:17;85923.20;;;23.93;8.34
40948;BME280;49382;-25.924;28.194;2023-07-31T08:36:43;85926.24;;;25.26;7.91
40948;BME280;49382;-25.924;28.194;2023-07-31T08:39:09;85920.91;;;25.36;7.51
40948;BME280;49382;-25.924;28.194;2023-07-31T08:41:38;85917.21;;;24.78;7.76
40948;BME280;49382;-25.924;28.194;2023-07-31T08:44:00;85921.22;;;23.45;8.55
40948;BME280;49382;-25.924;28.194;2023-07-31T08:46:26;85918.69;;;22.55;8.71
40948;BME280;49382;-25.924;28.194;2023-07-31T08:48:52;85919.18;;;22.99;8.52
40948;BME280;49382;-25.924;28.194;2023-07-31T08:51:17;85909.87;;;23.47;8.77
40948;BME280;49382;-25.924;28.194;2023-07-31T08:53:43;85913.90;;;22.75;8.84
40948;BME280;49382;-25.924;28.194;2023-07-31T08:56:08;85913.34;;;23.15;9.34
40948;BME280;49382;-25.924;28.194;2023-07-31T08:58:35;85911.33;;;22.52;9.93
40948;BME280;49382;-25.924;28.194;2023-07-31T09:01:03;85906.28;;;22.20;10.07
40948;BME280;49382;-25.924;28.194;2023-07-31T09:03:25;85902.93;;;21.73;10.30
40948;BME280;49382;-25.924;28.194;2023-07-31T09:05:51;85902.10;;;22.38;10.56
40948;BME280;49382;-25.924;28.194;2023-07-31T09:08:21;85897.94;;;22.32;10.31
40948;BME280;49382;-25.924;28.194;2023-07-31T09:10:43;85888.13;;;21.70;10.38
40948;BME280;49382;-25.924;28.194;2023-07-31T09:13:08;85883.68;;;21.83;11.11
40948;BME280;49382;-25.924;28.194;2023-07-31T09:15:33;85883.69;;;21.57;10.72
40948;BME280;49382;-25.924;28.194;2023-07-31T09:18:00;85877.68;;;19.93;10.98
40948;BME280;49382;-25.924;28.194;2023-07-31T09:20:24;85872.88;;;19.84;11.55
40948;BME280;49382;-25.924;28.194;2023-07-31T09:22:50;85869.72;;;20.28;11.85
40948;BME280;49382;-25.924;28.194;2023-07-31T09:25:17;85867.24;;;19.84;11.87
40948;BME280;49382;-25.924;28.194;2023-07-31T09:27:47;85869.06;;;20.78;11.45
40948;BME280;49382;-25.924;28.194;2023-07-31T09:30:07;85866.53;;;20.39;11.77
40948;BME280;49382;-25.924;28.194;2023-07-31T09:32:32;85872.17;;;19.88;12.67
40948;BME280;49382;-25.924;28.194;2023-07-31T09:34:57;85868.62;;;18.73;12.74
40948;BME280;49382;-25.924;28.194;2023-07-31T09:37:23;85862.85;;;19.11;12.49
40948;BME280;49382;-25.924;28.194;2023-07-31T09:39:49;85858.13;;;18.83;12.66
40948;BME280;49382;-25.924;28.194;2023-07-31T09:42:14;85854.98;;;20.02;12.90
40948;BME280;49382;-25.924;28.194;2023-07-31T09:44:41;85854.13;;;19.60;12.16
40948;BME280;49382;-25.924;28.194;2023-07-31T09:47:06;85852.00;;;19.35;12.49
40948;BME280;49382;-25.924;28.194;2023-07-31T09:49:30;85850.89;;;18.01;13.36
40948;BME280;49382;-25.924;28.194;2023-07-31T09:51:56;85844.76;;;18.47;13.26
40948;BME280;49382;-25.924;28.194;2023-07-31T09:54:21;85840.58;;;19.40;12.47
40948;BME280;49382;-25.924;28.194;2023-07-31T09:56:47;85840.77;;;18.57;13.34
40948;BME280;49382;-25.924;28.194;2023-07-31T09:59:13;85834.64;;;18.69;12.80
40948;BME280;49382;-25.924;28.194;2023-07-31T10:01:37;85829.65;;;20.01;13.22
40948;BME280;49382;-25.924;28.194;2023-07-31T10:04:02;85830.24;;;18.88;14.03
40948;BME280;49382;-25.924;28.194;2023-07-31T10:06:28;85825.25;;;18.63;13.71
40948;BME280;49382;-25.924;28.194;2023-07-31T10:08:53;85817.46;;;18.77;13.63
40948;BME280;49382;-25.924;28.194;2023-07-31T10:11:18;85814.00;;;18.34;14.07
40948;BME280;49382;-25.924;28.194;2023-07-31T10:13:44;85814.86;;;18.43;14.05
40948;BME280;49382;-25.924;28.194;2023-07-31T10:16:09;85805.80;;;19.41;13.58
40948;BME280;49382;-25.924;28.194;2023-07-31T10:18:35;85798.03;;;18.25;13.88
40948;BME280;49382;-25.924;28.194;2023-07-31T10:20:59;85802.05;;;17.48;13.87
40948;BME280;49382;-25.924;28.194;2023-07-31T10:23:24;85798.09;;;17.29;14.06
40948;BME280;49382;-25.924;28.194;2023-07-31T10:25:49;85789.47;;;18.00;13.25
40948;BME280;49382;-25.924;28.194;2023-07-31T10:28:14;85789.21;;;19.34;14.03
40948;BME280;49382;-25.924;28.194;2023-07-31T10:30:39;85793.29;;;17.87;15.44
40948;BME280;49382;-25.924;28.194;2023-07-31T10:33:04;85789.33;;;18.65;14.78
40948;BME280;49382;-25.924;28.194;2023-07-31T10:35:29;85787.33;;;18.05;15.11
40948;BME280;49382;-25.924;28.194;2023-07-31T10:37:54;85782.18;;;18.21;14.00
40948;BME280;49382;-25.924;28.194;2023-07-31T10:40:23;85783.90;;;17.97;13.76
40948;BME280;49382;-25.924;28.194;2023-07-31T10:42:48;85783.64;;;17.64;14.25
40948;BME280;49382;-25.924;28.194;2023-07-31T10:45:09;85776.93;;;17.77;15.09
40948;BME280;49382;-25.924;28.194;2023-07-31T10:47:38;85776.32;;;17.87;14.86
40948;BME280;49382;-25.924;28.194;2023-07-31T10:52:24;85761.83;;;18.17;14.59
40948;BME280;49382;-25.924;28.194;2023-07-31T10:54:49;85759.88;;;18.09;14.63
40948;BME280;49382;-25.924;28.194;2023-07-31T10:57:19;85758.62;;;17.79;14.64
40948;BME280;49382;-25.924;28.194;2023-07-31T10:59:39;85760.07;;;17.74;14.58
40948;BME280;49382;-25.924;28.194;2023-07-31T11:02:04;85753.39;;;17.29;14.62
40948;BME280;49382;-25.924;28.194;2023-07-31T11:04:30;85748.74;;;18.01;14.88
40948;BME280;49382;-25.924;28.194;2023-07-31T11:06:59;85744.00;;;18.04;14.87
40948;BME280;49382;-25.924;28.194;2023-07-31T11:09:19;85741.62;;;18.82;12.95
40948;BME280;49382;-25.924;28.194;2023-07-31T11:11:45;85736.63;;;18.27;14.08
40948;BME280;49382;-25.924;28.194;2023-07-31T11:14:11;85737.36;;;16.87;14.18
40948;BME280;49382;-25.924;28.194;2023-07-31T11:16:34;85734.31;;;17.08;13.70
40948;BME280;49382;-25.924;28.194;2023-07-31T11:18:59;85730.48;;;17.23;13.96
40948;BME280;49382;-25.924;28.194;2023-07-31T11:21:25;85728.91;;;18.11;15.01
40948;BME280;49382;-25.924;28.194;2023-07-31T11:23:51;85731.65;;;17.33;14.38
40948;BME280;49382;-25.924;28.194;2023-07-31T11:26:15;85729.77;;;17.31;14.74
40948;BME280;49382;-25.924;28.194;2023-07-31T11:28:40;85725.17;;;17.53;14.35
40948;BME280;49382;-25.924;28.194;2023-07-31T11:31:05;85721.86;;;17.92;13.79
40948;BME280;49382;-25.924;28.194;2023-07-31T11:33:30;85720.65;;;17.92;14.13
40948;BME280;49382;-25.924;28.194;2023-07-31T11:35:55;85718.00;;;17.66;14.91
40948;BME280;49382;-25.924;28.194;2023-07-31T11:38:24;85713.46;;;18.73;13.58
40948;BME280;49382;-25.924;28.194;2023-07-31T11:40:45;85709.86;;;18.03;14.10
40948;BME280;49382;-25.924;28.194;2023-07-31T11:43:10;85710.21;;;18.65;14.07
40948;BME280;49382;-25.924;28.194;2023-07-31T11:45:35;85704.39;;;17.13;14.53
40948;BME280;49382;-25.924;28.194;2023-07-31T11:48:01;85701.16;;;17.87;13.49
40948;BME280;49382;-25.924;28.194;2023-07-31T11:50:25;85694.96;;;17.25;14.33
40948;BME280;49382;-25.924;28.194;2023-07-31T11:52:52;85694.52;;;17.95;13.97
40948;BME280;49382;-25.924;28.194;2023-07-31T11:55:16;85699.21;;;16.79;14.18
40948;BME280;49382;-25.924;28.194;2023-07-31T11:57:41;85694.25;;;17.57;13.69
40948;BME280;49382;-25.924;28.194;2023-07-31T12:00:07;85693.46;;;17.26;13.83
40948;BME280;49382;-25.924;28.194;2023-07-31T12:02:30;85693.92;;;18.28;13.60
40948;BME280;49382;-25.924;28.194;2023-07-31T12:04:56;85688.60;;;17.92;13.67
40948;BME280;49382;-25.924;28.194;2023-07-31T12:07:21;85689.35;;;18.04;13.77
40948;BME280;49382;-25.924;28.194;2023-07-31T12:09:52;85689.21;;;17.06;14.37
40948;BME280;49382;-25.924;28.194;2023-07-31T12:12:11;85684.02;;;17.39;13.56
40948;BME280;49382;-25.924;28.194;2023-07-31T12:14:41;85681.71;;;18.00;13.32
40948;BME280;49382;-25.924;28.194;2023-07-31T12:17:04;85680.80;;;17.80;13.78
40948;BME280;49382;-25.924;28.194;2023-07-31T12:19:27;85679.88;;;17.87;13.82
40948;BME280;49382;-25.924;28.194;2023-07-31T12:21:52;85679.84;;;18.24;13.67
40948;BME280;49382;-25.924;28.194;2023-07-31T12:24:19;85681.63;;;18.15;13.81
40948;BME280;49382;-25.924;28.194;2023-07-31T12:26:46;85685.68;;;17.39;14.17
40948;BME280;49382;-25.924;28.194;2023-07-31T12:29:08;85681.54;;;18.02;13.27
40948;BME280;49382;-25.924;28.194;2023-07-31T12:31:34;85682.40;;;18.27;13.42
40948;BME280;49382;-25.924;28.194;2023-07-31T12:33:59;85681.02;;;18.32;14.35
40948;BME280;49382;-25.924;28.194;2023-07-31T12:36:25;85679.83;;;17.35;14.75
40948;BME280;49382;-25.924;28.194;2023-07-31T12:38:50;85680.44;;;17.64;14.73
40948;BME280;49382;-25.924;28.194;2023-07-31T12:41:14;85676.51;;;17.28;14.28